sensor_id;sensor_type;location;lat;lon;timestamp;P1;durP1;ratioP1;P2;durP2;ratioP2
1296;SDS011;641;48.492;9.184;2023-01-13T00:01:12;6.50;;;0.67;;
1296;SDS011;641;48.492;9.184;2023-01-13T00:03:39;7.73;;;0.70;;
1296;SDS011;641;48.492;9.184;2023-01-13T00:06:05;5.30;;;0.50;;
1296;SDS011;641;48.492;9.184;2023-01-13T00:08:32;5.93;;;0.57;;
1296;SDS011;641;48.492;9.184;2023-01-13T00:10:57;9.00;;;0.70;;
1296;SDS011;641;48.492;9.184;2023-01-13T00:13:24;5.50;;;0.60;;
1296;SDS011;641;48.492;9.184;2023-01-13T00:15:56;5.70;;;0.50;;
1296;SDS011;641;48.492;9.184;2023-01-13T00:18:21;8.70;;;0.87;;
1296;SDS011;641;48.492;9.184;2023-01-13T00:20:47;8.50;;;0.90;;
1296;SDS011;641;48.492;9.184;2023-01-13T00:23:21;5.83;;;0.67;;
1296;SDS011;641;48.492;9.184;2023-01-13T00:25:48;6.33;;;0.63;;
1296;SDS011;641;48.492;9.184;2023-01-13T00:28:14;7.33;;;0.60;;
1296;SDS011;641;48.492;9.184;2023-01-13T00:30:39;5.80;;;0.53;;
1296;SDS011;641;48.492;9.184;2023-01-13T00:33:05;6.30;;;0.60;;
1296;SDS011;641;48.492;9.184;2023-01-13T00:35:30;5.57;;;0.53;;
1296;SDS011;641;48.492;9.184;2023-01-13T00:37:56;5.60;;;0.73;;
1296;SDS011;641;48.492;9.184;2023-01-13T00:40:21;6.53;;;0.70;;
1296;SDS011;641;48.492;9.184;2023-01-13T00:42:47;8.30;;;1.23;;
1296;SDS011;641;48.492;9.184;2023-01-13T00:45:31;5.83;;;0.70;;
1296;SDS011;641;48.492;9.184;2023-01-13T00:47:56;5.50;;;0.70;;
1296;SDS011;641;48.492;9.184;2023-01-13T00:50:22;7.03;;;0.80;;
1296;SDS011;641;48.492;9.184;2023-01-13T00:52:48;6.70;;;0.60;;
1296;SDS011;641;48.492;9.184;2023-01-13T00:55:13;7.00;;;0.50;;
1296;SDS011;641;48.492;9.184;2023-01-13T00:57:39;5.10;;;0.53;;
1296;SDS011;641;48.492;9.184;2023-01-13T01:00:04;7.00;;;0.67;;
1296;SDS011;641;48.492;9.184;2023-01-13T01:02:30;5.97;;;0.50;;
1296;SDS011;641;48.492;9.184;2023-01-13T01:04:56;5.23;;;0.60;;
1296;SDS011;641;48.492;9.184;2023-01-13T01:07:21;7.40;;;0.80;;
1296;SDS011;641;48.492;9.184;2023-01-13T01:09:48;6.33;;;0.53;;
1296;SDS011;641;48.492;9.184;2023-01-13T01:12:13;5.53;;;0.40;;
1296;SDS011;641;48.492;9.184;2023-01-13T01:14:39;5.10;;;0.57;;
1296;SDS011;641;48.492;9.184;2023-01-13T01:17:04;5.30;;;0.67;;
1296;SDS011;641;48.492;9.184;2023-01-13T01:19:30;5.83;;;0.60;;
1296;SDS011;641;48.492;9.184;2023-01-13T01:21:55;6.40;;;0.60;;
1296;SDS011;641;48.492;9.184;2023-01-13T01:24:21;5.90;;;0.60;;
1296;SDS011;641;48.492;9.184;2023-01-13T01:26:47;7.47;;;0.80;;
1296;SDS011;641;48.492;9.184;2023-01-13T01:29:12;10.23;;;1.37;;
1296;SDS011;641;48.492;9.184;2023-01-13T01:31:39;5.60;;;0.50;;
1296;SDS011;641;48.492;9.184;2023-01-13T01:34:05;5.20;;;0.70;;
1296;SDS011;641;48.492;9.184;2023-01-13T01:36:30;6.07;;;0.60;;
1296;SDS011;641;48.492;9.184;2023-01-13T01:38:57;5.70;;;0.63;;
1296;SDS011;641;48.492;9.184;2023-01-13T01:41:25;6.73;;;0.80;;
1296;SDS011;641;48.492;9.184;2023-01-13T01:43:54;5.33;;;0.43;;
1296;SDS011;641;48.492;9.184;2023-01-13T01:46:39;7.00;;;0.83;;
1296;SDS011;641;48.492;9.184;2023-01-13T01:49:11;5.70;;;0.53;;
1296;SDS011;641;48.492;9.184;2023-01-13T01:51:44;5.80;;;0.70;;
1296;SDS011;641;48.492;9.184;2023-01-13T01:54:15;6.70;;;1.40;;
1296;SDS011;641;48.492;9.184;2023-01-13T01:56:45;5.40;;;0.57;;
1296;SDS011;641;48.492;9.184;2023-01-13T01:59:11;8.10;;;1.03;;
1296;SDS011;641;48.492;9.184;2023-01-13T02:01:38;6.13;;;1.17;;
1296;SDS011;641;48.492;9.184;2023-01-13T02:04:08;5.40;;;0.60;;
1296;SDS011;641;48.492;9.184;2023-01-13T02:06:38;6.10;;;0.73;;
1296;SDS011;641;48.492;9.184;2023-01-13T02:09:04;5.60;;;0.60;;
1296;SDS011;641;48.492;9.184;2023-01-13T02:11:31;8.23;;;0.70;;
1296;SDS011;641;48.492;9.184;2023-01-13T02:14:18;8.00;;;0.60;;
1296;SDS011;641;48.492;9.184;2023-01-13T02:16:52;5.20;;;0.40;;
1296;SDS011;641;48.492;9.184;2023-01-13T02:25:10;6.80;;;0.70;;
1296;SDS011;641;48.492;9.184;2023-01-13T02:28:21;21.77;;;1.50;;
1296;SDS011;641;48.492;9.184;2023-01-13T02:30:58;6.23;;;0.80;;
1296;SDS011;641;48.492;9.184;2023-01-13T02:36:57;5.33;;;0.50;;
1296;SDS011;641;48.492;9.184;2023-01-13T02:39:23;5.63;;;0.77;;
1296;SDS011;641;48.492;9.184;2023-01-13T02:44:49;7.40;;;0.57;;
1296;SDS011;641;48.492;9.184;2023-01-13T02:47:20;5.73;;;0.57;;
1296;SDS011;641;48.492;9.184;2023-01-13T02:49:49;7.37;;;0.77;;
1296;SDS011;641;48.492;9.184;2023-01-13T02:52:30;5.50;;;0.60;;
1296;SDS011;641;48.492;9.184;2023-01-13T02:55:51;5.53;;;0.60;;
1296;SDS011;641;48.492;9.184;2023-01-13T02:58:03;5.40;;;0.50;;
1296;SDS011;641;48.492;9.184;2023-01-13T03:00:33;6.00;;;0.63;;
1296;SDS011;641;48.492;9.184;2023-01-13T03:03:00;6.20;;;0.80;;
1296;SDS011;641;48.492;9.184;2023-01-13T03:05:26;6.33;;;0.80;;
1296;SDS011;641;48.492;9.184;2023-01-13T03:10:44;5.40;;;0.60;;
1296;SDS011;641;48.492;9.184;2023-01-13T03:16:32;8.97;;;0.70;;
1296;SDS011;641;48.492;9.184;2023-01-13T03:19:24;6.10;;;1.00;;
1296;SDS011;641;48.492;9.184;2023-01-13T03:22:07;6.33;;;0.60;;
1296;SDS011;641;48.492;9.184;2023-01-13T03:24:52;8.03;;;1.03;;
1296;SDS011;641;48.492;9.184;2023-01-13T03:30:16;7.80;;;0.70;;
1296;SDS011;641;48.492;9.184;2023-01-13T03:33:06;6.37;;;0.60;;
1296;SDS011;641;48.492;9.184;2023-01-13T03:35:39;5.50;;;0.50;;
1296;SDS011;641;48.492;9.184;2023-01-13T03:38:16;6.20;;;0.80;;
1296;SDS011;641;48.492;9.184;2023-01-13T03:40:52;5.30;;;0.50;;
1296;SDS011;641;48.492;9.184;2023-01-13T03:43:28;5.80;;;0.60;;
1296;SDS011;641;48.492;9.184;2023-01-13T03:46:19;5.07;;;0.50;;
1296;SDS011;641;48.492;9.184;2023-01-13T03:48:50;6.37;;;0.80;;
1296;SDS011;641;48.492;9.184;2023-01-13T03:51:19;5.13;;;0.50;;
1296;SDS011;641;48.492;9.184;2023-01-13T03:53:48;5.20;;;0.50;;
1296;SDS011;641;48.492;9.184;2023-01-13T03:56:20;5.73;;;0.53;;
1296;SDS011;641;48.492;9.184;2023-01-13T03:58:49;5.30;;;0.50;;
1296;SDS011;641;48.492;9.184;2023-01-13T04:03:53;5.50;;;0.60;;
1296;SDS011;641;48.492;9.184;2023-01-13T04:11:53;5.90;;;0.50;;
1296;SDS011;641;48.492;9.184;2023-01-13T04:14:25;5.70;;;0.53;;
1296;SDS011;641;48.492;9.184;2023-01-13T04:16:52;6.07;;;0.60;;
1296;SDS011;641;48.492;9.184;2023-01-13T04:19:18;5.87;;;0.50;;
1296;SDS011;641;48.492;9.184;2023-01-13T04:21:44;10.53;;;0.50;;
1296;SDS011;641;48.492;9.184;2023-01-13T04:24:09;6.70;;;0.60;;
1296;SDS011;641;48.492;9.184;2023-01-13T04:26:35;5.30;;;0.40;;
1296;SDS011;641;48.492;9.184;2023-01-13T04:29:01;5.00;;;0.30;;
1296;SDS011;641;48.492;9.184;2023-01-13T04:31:27;10.83;;;0.63;;
1296;SDS011;641;48.492;9.184;2023-01-13T04:33:52;5.00;;;0.40;;
1296;SDS011;641;48.492;9.184;2023-01-13T04:36:18;5.73;;;0.50;;
1296;SDS011;641;48.492;9.184;2023-01-13T04:38:49;5.20;;;0.40;;
1296;SDS011;641;48.492;9.184;2023-01-13T04:41:14;5.37;;;0.40;;
1296;SDS011;641;48.492;9.184;2023-01-13T04:43:40;5.00;;;0.40;;
1296;SDS011;641;48.492;9.184;2023-01-13T04:46:06;4.97;;;0.40;;
1296;SDS011;641;48.492;9.184;2023-01-13T04:48:31;5.17;;;0.50;;
1296;SDS011;641;48.492;9.184;2023-01-13T04:50:57;7.30;;;0.60;;
1296;SDS011;641;48.492;9.184;2023-01-13T04:53:22;8.90;;;0.50;;
1296;SDS011;641;48.492;9.184;2023-01-13T04:55:48;6.57;;;0.53;;
1296;SDS011;641;48.492;9.184;2023-01-13T04:58:14;6.23;;;0.47;;
1296;SDS011;641;48.492;9.184;2023-01-13T05:00:40;6.80;;;0.50;;
1296;SDS011;641;48.492;9.184;2023-01-13T05:03:06;5.90;;;0.40;;
1296;SDS011;641;48.492;9.184;2023-01-13T05:05:32;5.50;;;0.40;;
1296;SDS011;641;48.492;9.184;2023-01-13T05:07:58;5.50;;;0.60;;
1296;SDS011;641;48.492;9.184;2023-01-13T05:10:24;5.00;;;0.40;;
1296;SDS011;641;48.492;9.184;2023-01-13T05:12:50;5.53;;;0.50;;
1296;SDS011;641;48.492;9.184;2023-01-13T05:15:34;5.73;;;0.60;;
1296;SDS011;641;48.492;9.184;2023-01-13T05:18:18;5.70;;;0.37;;
1296;SDS011;641;48.492;9.184;2023-01-13T05:20:45;5.10;;;0.40;;
1296;SDS011;641;48.492;9.184;2023-01-13T05:23:11;5.10;;;0.40;;
1296;SDS011;641;48.492;9.184;2023-01-13T05:25:55;4.90;;;0.20;;
1296;SDS011;641;48.492;9.184;2023-01-13T05:28:21;5.30;;;0.83;;
1296;SDS011;641;48.492;9.184;2023-01-13T05:30:46;5.83;;;0.40;;
1296;SDS011;641;48.492;9.184;2023-01-13T05:33:16;5.07;;;0.40;;
1296;SDS011;641;48.492;9.184;2023-01-13T05:35:45;5.03;;;0.33;;
1296;SDS011;641;48.492;9.184;2023-01-13T05:38:12;5.20;;;0.50;;
1296;SDS011;641;48.492;9.184;2023-01-13T05:40:38;5.00;;;0.40;;
1296;SDS011;641;48.492;9.184;2023-01-13T05:43:22;4.93;;;0.30;;
1296;SDS011;641;48.492;9.184;2023-01-13T05:48:20;7.23;;;0.50;;
1296;SDS011;641;48.492;9.184;2023-01-13T05:50:48;5.13;;;0.40;;
1296;SDS011;641;48.492;9.184;2023-01-13T05:53:14;5.03;;;0.50;;
1296;SDS011;641;48.492;9.184;2023-01-13T05:55:41;5.20;;;0.50;;
1296;SDS011;641;48.492;9.184;2023-01-13T05:58:07;7.93;;;0.40;;
1296;SDS011;641;48.492;9.184;2023-01-13T06:00:34;4.93;;;0.30;;
1296;SDS011;641;48.492;9.184;2023-01-13T06:03:00;5.53;;;0.60;;
1296;SDS011;641;48.492;9.184;2023-01-13T06:05:26;4.93;;;0.30;;
1296;SDS011;641;48.492;9.184;2023-01-13T06:07:54;5.30;;;0.53;;
1296;SDS011;641;48.492;9.184;2023-01-13T06:10:24;5.00;;;0.40;;
1296;SDS011;641;48.492;9.184;2023-01-13T06:12:50;5.00;;;0.30;;
1296;SDS011;641;48.492;9.184;2023-01-13T06:15:16;5.20;;;0.50;;
1296;SDS011;641;48.492;9.184;2023-01-13T06:17:42;5.00;;;0.30;;
1296;SDS011;641;48.492;9.184;2023-01-13T06:20:08;5.67;;;0.40;;
1296;SDS011;641;48.492;9.184;2023-01-13T06:22:36;5.00;;;0.40;;
1296;SDS011;641;48.492;9.184;2023-01-13T06:25:06;5.00;;;0.33;;
1296;SDS011;641;48.492;9.184;2023-01-13T06:27:37;4.97;;;0.30;;
1296;SDS011;641;48.492;9.184;2023-01-13T06:30:04;4.97;;;0.30;;
1296;SDS011;641;48.492;9.184;2023-01-13T06:32:33;4.93;;;0.30;;
1296;SDS011;641;48.492;9.184;2023-01-13T06:35:05;5.20;;;0.40;;
1296;SDS011;641;48.492;9.184;2023-01-13T06:37:35;5.10;;;0.40;;
1296;SDS011;641;48.492;9.184;2023-01-13T06:40:03;5.00;;;0.30;;
1296;SDS011;641;48.492;9.184;2023-01-13T06:42:31;5.57;;;0.50;;
1296;SDS011;641;48.492;9.184;2023-01-13T06:45:18;4.90;;;0.30;;
1296;SDS011;641;48.492;9.184;2023-01-13T06:47:44;6.27;;;0.50;;
1296;SDS011;641;48.492;9.184;2023-01-13T06:50:10;4.97;;;0.30;;
1296;SDS011;641;48.492;9.184;2023-01-13T06:52:35;5.10;;;0.30;;
1296;SDS011;641;48.492;9.184;2023-01-13T06:55:01;5.00;;;0.30;;
1296;SDS011;641;48.492;9.184;2023-01-13T06:57:27;7.83;;;0.50;;
1296;SDS011;641;48.492;9.184;2023-01-13T06:59:53;5.20;;;0.47;;
1296;SDS011;641;48.492;9.184;2023-01-13T07:02:18;5.07;;;0.37;;
1296;SDS011;641;48.492;9.184;2023-01-13T07:04:44;5.00;;;0.40;;
1296;SDS011;641;48.492;9.184;2023-01-13T07:07:10;5.03;;;0.30;;
1296;SDS011;641;48.492;9.184;2023-01-13T07:09:37;5.30;;;0.40;;
1296;SDS011;641;48.492;9.184;2023-01-13T07:12:03;5.20;;;0.40;;
1296;SDS011;641;48.492;9.184;2023-01-13T07:14:28;5.17;;;0.40;;
1296;SDS011;641;48.492;9.184;2023-01-13T07:17:12;4.90;;;0.30;;
1296;SDS011;641;48.492;9.184;2023-01-13T07:19:38;4.90;;;0.30;;
1296;SDS011;641;48.492;9.184;2023-01-13T07:22:03;5.00;;;0.30;;
1296;SDS011;641;48.492;9.184;2023-01-13T07:24:29;5.10;;;0.40;;
1296;SDS011;641;48.492;9.184;2023-01-13T07:26:55;4.97;;;0.30;;
1296;SDS011;641;48.492;9.184;2023-01-13T07:29:20;5.20;;;0.40;;
1296;SDS011;641;48.492;9.184;2023-01-13T07:31:46;5.70;;;0.50;;
1296;SDS011;641;48.492;9.184;2023-01-13T07:34:12;5.67;;;0.47;;
1296;SDS011;641;48.492;9.184;2023-01-13T07:36:38;4.97;;;0.30;;
1296;SDS011;641;48.492;9.184;2023-01-13T07:39:03;4.97;;;0.30;;
1296;SDS011;641;48.492;9.184;2023-01-13T07:41:29;4.93;;;0.30;;
1296;SDS011;641;48.492;9.184;2023-01-13T07:44:14;5.10;;;0.50;;
1296;SDS011;641;48.492;9.184;2023-01-13T07:46:39;4.93;;;0.30;;
1296;SDS011;641;48.492;9.184;2023-01-13T07:49:05;5.50;;;0.43;;
1296;SDS011;641;48.492;9.184;2023-01-13T07:51:34;5.00;;;0.30;;
1296;SDS011;641;48.492;9.184;2023-01-13T07:54:01;5.10;;;0.40;;
1296;SDS011;641;48.492;9.184;2023-01-13T07:56:27;4.93;;;0.40;;
1296;SDS011;641;48.492;9.184;2023-01-13T07:58:52;4.93;;;0.30;;
1296;SDS011;641;48.492;9.184;2023-01-13T08:01:19;4.93;;;0.40;;
1296;SDS011;641;48.492;9.184;2023-01-13T08:03:45;5.13;;;0.50;;
1296;SDS011;641;48.492;9.184;2023-01-13T08:06:10;5.07;;;0.50;;
1296;SDS011;641;48.492;9.184;2023-01-13T08:08:36;4.90;;;0.30;;
1296;SDS011;641;48.492;9.184;2023-01-13T08:11:03;6.93;;;0.50;;
1296;SDS011;641;48.492;9.184;2023-01-13T08:13:29;5.00;;;0.30;;
1296;SDS011;641;48.492;9.184;2023-01-13T08:16:00;5.10;;;0.40;;
1296;SDS011;641;48.492;9.184;2023-01-13T08:18:30;5.93;;;0.40;;
1296;SDS011;641;48.492;9.184;2023-01-13T08:20:59;4.90;;;0.30;;
1296;SDS011;641;48.492;9.184;2023-01-13T08:23:26;8.90;;;0.50;;
1296;SDS011;641;48.492;9.184;2023-01-13T08:25:52;5.00;;;0.40;;
1296;SDS011;641;48.492;9.184;2023-01-13T08:28:18;5.00;;;0.40;;
1296;SDS011;641;48.492;9.184;2023-01-13T08:30:43;5.40;;;0.33;;
1296;SDS011;641;48.492;9.184;2023-01-13T08:33:09;4.93;;;0.30;;
1296;SDS011;641;48.492;9.184;2023-01-13T08:35:39;4.93;;;0.30;;
1296;SDS011;641;48.492;9.184;2023-01-13T08:38:05;5.07;;;0.30;;
1296;SDS011;641;48.492;9.184;2023-01-13T08:40:32;4.90;;;0.30;;
1296;SDS011;641;48.492;9.184;2023-01-13T08:42:57;5.10;;;0.40;;
1296;SDS011;641;48.492;9.184;2023-01-13T08:45:24;5.63;;;0.50;;
1296;SDS011;641;48.492;9.184;2023-01-13T08:47:50;5.20;;;0.43;;
1296;SDS011;641;48.492;9.184;2023-01-13T08:50:16;5.00;;;0.30;;
1296;SDS011;641;48.492;9.184;2023-01-13T08:52:41;5.10;;;0.50;;
1296;SDS011;641;48.492;9.184;2023-01-13T08:55:07;5.10;;;0.53;;
1296;SDS011;641;48.492;9.184;2023-01-13T08:57:33;5.20;;;0.50;;
1296;SDS011;641;48.492;9.184;2023-01-13T08:59:59;5.10;;;0.40;;
1296;SDS011;641;48.492;9.184;2023-01-13T09:02:25;5.40;;;0.50;;
1296;SDS011;641;48.492;9.184;2023-01-13T09:04:51;4.97;;;0.30;;
1296;SDS011;641;48.492;9.184;2023-01-13T09:07:17;4.97;;;0.37;;
1296;SDS011;641;48.492;9.184;2023-01-13T09:09:44;5.10;;;0.40;;
1296;SDS011;641;48.492;9.184;2023-01-13T09:12:10;5.20;;;0.50;;
1296;SDS011;641;48.492;9.184;2023-01-13T09:14:55;5.00;;;0.37;;
1296;SDS011;641;48.492;9.184;2023-01-13T09:17:21;5.00;;;0.40;;
1296;SDS011;641;48.492;9.184;2023-01-13T09:19:47;5.10;;;0.40;;
1296;SDS011;641;48.492;9.184;2023-01-13T09:22:14;5.00;;;0.30;;
1296;SDS011;641;48.492;9.184;2023-01-13T09:24:41;5.00;;;0.30;;
1296;SDS011;641;48.492;9.184;2023-01-13T09:27:08;5.00;;;0.30;;
1296;SDS011;641;48.492;9.184;2023-01-13T09:29:34;5.60;;;0.50;;
1296;SDS011;641;48.492;9.184;2023-01-13T09:31:59;4.97;;;0.40;;
1296;SDS011;641;48.492;9.184;2023-01-13T09:34:25;5.00;;;0.43;;
1296;SDS011;641;48.492;9.184;2023-01-13T09:37:09;5.00;;;0.40;;
1296;SDS011;641;48.492;9.184;2023-01-13T09:39:35;5.20;;;0.40;;
1296;SDS011;641;48.492;9.184;2023-01-13T09:42:02;5.10;;;0.40;;
1296;SDS011;641;48.492;9.184;2023-01-13T09:45:07;5.00;;;0.40;;
1296;SDS011;641;48.492;9.184;2023-01-13T09:47:46;7.13;;;0.60;;
1296;SDS011;641;48.492;9.184;2023-01-13T09:50:21;4.93;;;0.40;;
1296;SDS011;641;48.492;9.184;2023-01-13T09:53:09;5.00;;;0.40;;
1296;SDS011;641;48.492;9.184;2023-01-13T09:55:43;5.13;;;0.53;;
1296;SDS011;641;48.492;9.184;2023-01-13T09:58:13;5.10;;;0.50;;
1296;SDS011;641;48.492;9.184;2023-01-13T10:00:44;5.10;;;0.40;;
1296;SDS011;641;48.492;9.184;2023-01-13T10:03:28;5.10;;;0.40;;
1296;SDS011;641;48.492;9.184;2023-01-13T10:05:57;5.27;;;0.53;;
1296;SDS011;641;48.492;9.184;2023-01-13T10:08:37;5.60;;;0.50;;
1296;SDS011;641;48.492;9.184;2023-01-13T10:11:06;7.77;;;0.50;;
1296;SDS011;641;48.492;9.184;2023-01-13T10:13:57;5.20;;;0.40;;
1296;SDS011;641;48.492;9.184;2023-01-13T10:19:16;7.80;;;0.47;;
1296;SDS011;641;48.492;9.184;2023-01-13T10:22:04;5.00;;;0.50;;
1296;SDS011;641;48.492;9.184;2023-01-13T10:24:48;5.10;;;0.50;;
1296;SDS011;641;48.492;9.184;2023-01-13T10:27:38;5.23;;;0.50;;
1296;SDS011;641;48.492;9.184;2023-01-13T10:30:11;5.17;;;0.50;;
1296;SDS011;641;48.492;9.184;2023-01-13T10:32:55;5.00;;;0.40;;
1296;SDS011;641;48.492;9.184;2023-01-13T10:43:43;5.30;;;0.50;;
1296;SDS011;641;48.492;9.184;2023-01-13T10:46:10;4.97;;;0.40;;
1296;SDS011;641;48.492;9.184;2023-01-13T10:48:53;5.10;;;0.40;;
1296;SDS011;641;48.492;9.184;2023-01-13T10:51:41;5.00;;;0.40;;
1296;SDS011;641;48.492;9.184;2023-01-13T10:56:40;4.80;;;0.30;;
1296;SDS011;641;48.492;9.184;2023-01-13T10:59:14;5.17;;;0.53;;
1296;SDS011;641;48.492;9.184;2023-01-13T11:02:18;7.13;;;0.67;;
1296;SDS011;641;48.492;9.184;2023-01-13T11:04:36;8.17;;;0.70;;
1296;SDS011;641;48.492;9.184;2023-01-13T11:07:04;6.17;;;1.10;;
1296;SDS011;641;48.492;9.184;2023-01-13T11:09:31;6.13;;;0.60;;
1296;SDS011;641;48.492;9.184;2023-01-13T11:11:58;5.00;;;0.47;;
1296;SDS011;641;48.492;9.184;2023-01-13T11:14:26;7.10;;;0.80;;
1296;SDS011;641;48.492;9.184;2023-01-13T11:22:37;6.03;;;0.60;;
1296;SDS011;641;48.492;9.184;2023-01-13T11:25:09;4.97;;;0.30;;
1296;SDS011;641;48.492;9.184;2023-01-13T11:27:58;8.60;;;0.57;;
1296;SDS011;641;48.492;9.184;2023-01-13T11:30:39;5.20;;;0.50;;
1296;SDS011;641;48.492;9.184;2023-01-13T11:35:41;6.87;;;0.43;;
1296;SDS011;641;48.492;9.184;2023-01-13T11:38:19;5.60;;;0.30;;
1296;SDS011;641;48.492;9.184;2023-01-13T11:41:38;5.00;;;0.33;;
1296;SDS011;641;48.492;9.184;2023-01-13T11:44:18;6.13;;;0.60;;
1296;SDS011;641;48.492;9.184;2023-01-13T11:46:49;5.20;;;0.40;;
1296;SDS011;641;48.492;9.184;2023-01-13T11:49:25;4.90;;;0.30;;
1296;SDS011;641;48.492;9.184;2023-01-13T11:55:00;6.03;;;0.87;;
1296;SDS011;641;48.492;9.184;2023-01-13T12:00:32;6.03;;;0.70;;
1296;SDS011;641;48.492;9.184;2023-01-13T12:09:02;5.20;;;0.60;;
1296;SDS011;641;48.492;9.184;2023-01-13T12:11:37;6.37;;;0.70;;
1296;SDS011;641;48.492;9.184;2023-01-13T12:17:33;6.07;;;0.87;;
1296;SDS011;641;48.492;9.184;2023-01-13T12:20:11;8.20;;;0.80;;
1296;SDS011;641;48.492;9.184;2023-01-13T12:22:46;5.67;;;0.87;;
1296;SDS011;641;48.492;9.184;2023-01-13T12:25:19;5.80;;;0.60;;
1296;SDS011;641;48.492;9.184;2023-01-13T12:28:13;5.47;;;0.80;;
1296;SDS011;641;48.492;9.184;2023-01-13T12:30:54;6.40;;;1.00;;
1296;SDS011;641;48.492;9.184;2023-01-13T12:41:48;5.20;;;0.67;;
1296;SDS011;641;48.492;9.184;2023-01-13T12:47:34;5.30;;;0.80;;
1296;SDS011;641;48.492;9.184;2023-01-13T12:52:46;5.93;;;0.80;;
1296;SDS011;641;48.492;9.184;2023-01-13T12:55:13;9.47;;;0.70;;
1296;SDS011;641;48.492;9.184;2023-01-13T12:57:54;5.33;;;0.80;;
1296;SDS011;641;48.492;9.184;2023-01-13T13:05:43;7.10;;;0.90;;
1296;SDS011;641;48.492;9.184;2023-01-13T13:14:10;7.60;;;1.00;;
1296;SDS011;641;48.492;9.184;2023-01-13T13:16:45;5.87;;;0.70;;
1296;SDS011;641;48.492;9.184;2023-01-13T13:24:33;7.00;;;0.80;;
1296;SDS011;641;48.492;9.184;2023-01-13T13:29:48;5.40;;;0.80;;
1296;SDS011;641;48.492;9.184;2023-01-13T13:38:21;5.40;;;0.80;;
1296;SDS011;641;48.492;9.184;2023-01-13T13:41:23;8.07;;;1.03;;
1296;SDS011;641;48.492;9.184;2023-01-13T13:44:11;7.37;;;1.17;;
1296;SDS011;641;48.492;9.184;2023-01-13T13:47:03;6.33;;;1.13;;
1296;SDS011;641;48.492;9.184;2023-01-13T13:52:27;6.50;;;1.07;;
1296;SDS011;641;48.492;9.184;2023-01-13T13:55:01;6.90;;;0.97;;
1296;SDS011;641;48.492;9.184;2023-01-13T13:57:43;13.23;;;1.13;;
1296;SDS011;641;48.492;9.184;2023-01-13T14:00:22;9.10;;;1.50;;
1296;SDS011;641;48.492;9.184;2023-01-13T14:03:01;6.70;;;1.70;;
1296;SDS011;641;48.492;9.184;2023-01-13T14:05:33;6.50;;;1.07;;
1296;SDS011;641;48.492;9.184;2023-01-13T14:08:16;10.47;;;1.53;;
1296;SDS011;641;48.492;9.184;2023-01-13T14:10:42;7.30;;;1.03;;
1296;SDS011;641;48.492;9.184;2023-01-13T14:13:26;7.43;;;0.80;;
1296;SDS011;641;48.492;9.184;2023-01-13T14:15:58;7.40;;;0.93;;
1296;SDS011;641;48.492;9.184;2023-01-13T14:18:26;9.67;;;1.30;;
1296;SDS011;641;48.492;9.184;2023-01-13T14:23:24;10.93;;;1.03;;
1296;SDS011;641;48.492;9.184;2023-01-13T14:25:53;11.93;;;4.30;;
1296;SDS011;641;48.492;9.184;2023-01-13T14:28:25;7.63;;;1.07;;
1296;SDS011;641;48.492;9.184;2023-01-13T14:30:55;6.80;;;1.37;;
1296;SDS011;641;48.492;9.184;2023-01-13T14:33:31;5.80;;;0.90;;
1296;SDS011;641;48.492;9.184;2023-01-13T14:38:40;6.23;;;0.83;;
1296;SDS011;641;48.492;9.184;2023-01-13T14:43:47;8.67;;;1.40;;
1296;SDS011;641;48.492;9.184;2023-01-13T14:46:14;7.40;;;1.00;;
1296;SDS011;641;48.492;9.184;2023-01-13T14:48:41;8.30;;;1.07;;
1296;SDS011;641;48.492;9.184;2023-01-13T14:51:12;7.70;;;1.67;;
1296;SDS011;641;48.492;9.184;2023-01-13T14:53:46;8.23;;;1.50;;
1296;SDS011;641;48.492;9.184;2023-01-13T15:02:26;12.00;;;0.97;;
1296;SDS011;641;48.492;9.184;2023-01-13T15:16:03;12.90;;;1.47;;
1296;SDS011;641;48.492;9.184;2023-01-13T15:18:41;10.00;;;1.07;;
1296;SDS011;641;48.492;9.184;2023-01-13T15:21:08;7.20;;;1.10;;
1296;SDS011;641;48.492;9.184;2023-01-13T15:23:34;11.10;;;1.70;;
1296;SDS011;641;48.492;9.184;2023-01-13T15:26:00;10.00;;;2.43;;
1296;SDS011;641;48.492;9.184;2023-01-13T15:28:26;7.97;;;1.73;;
1296;SDS011;641;48.492;9.184;2023-01-13T15:30:52;6.87;;;2.00;;
1296;SDS011;641;48.492;9.184;2023-01-13T15:33:19;7.90;;;1.30;;
1296;SDS011;641;48.492;9.184;2023-01-13T15:35:50;6.83;;;1.23;;
1296;SDS011;641;48.492;9.184;2023-01-13T15:38:17;6.57;;;1.30;;
1296;SDS011;641;48.492;9.184;2023-01-13T15:40:45;8.57;;;1.13;;
1296;SDS011;641;48.492;9.184;2023-01-13T15:43:12;17.50;;;2.03;;
1296;SDS011;641;48.492;9.184;2023-01-13T15:45:59;7.17;;;1.63;;
1296;SDS011;641;48.492;9.184;2023-01-13T15:48:44;7.70;;;1.00;;
1296;SDS011;641;48.492;9.184;2023-01-13T15:51:10;8.60;;;1.53;;
1296;SDS011;641;48.492;9.184;2023-01-13T15:53:36;11.13;;;1.50;;
1296;SDS011;641;48.492;9.184;2023-01-13T15:56:03;8.20;;;1.30;;
1296;SDS011;641;48.492;9.184;2023-01-13T15:58:33;7.33;;;1.30;;
1296;SDS011;641;48.492;9.184;2023-01-13T16:00:59;8.90;;;1.50;;
1296;SDS011;641;48.492;9.184;2023-01-13T16:03:24;11.13;;;2.07;;
1296;SDS011;641;48.492;9.184;2023-01-13T16:05:50;7.73;;;1.23;;
1296;SDS011;641;48.492;9.184;2023-01-13T16:08:17;8.60;;;1.17;;
1296;SDS011;641;48.492;9.184;2023-01-13T16:10:44;9.30;;;1.30;;
1296;SDS011;641;48.492;9.184;2023-01-13T16:13:10;9.03;;;1.20;;
1296;SDS011;641;48.492;9.184;2023-01-13T16:15:38;7.60;;;1.30;;
1296;SDS011;641;48.492;9.184;2023-01-13T16:18:09;6.80;;;1.30;;
1296;SDS011;641;48.492;9.184;2023-01-13T16:20:40;10.03;;;2.50;;
1296;SDS011;641;48.492;9.184;2023-01-13T16:23:06;11.03;;;2.70;;
1296;SDS011;641;48.492;9.184;2023-01-13T16:25:32;12.03;;;2.00;;
1296;SDS011;641;48.492;9.184;2023-01-13T16:27:58;9.87;;;3.37;;
1296;SDS011;641;48.492;9.184;2023-01-13T16:30:31;9.70;;;1.90;;
1296;SDS011;641;48.492;9.184;2023-01-13T16:33:01;9.73;;;1.50;;
1296;SDS011;641;48.492;9.184;2023-01-13T16:35:27;9.53;;;1.40;;
1296;SDS011;641;48.492;9.184;2023-01-13T16:37:55;7.30;;;1.47;;
1296;SDS011;641;48.492;9.184;2023-01-13T16:42:54;6.80;;;1.13;;
1296;SDS011;641;48.492;9.184;2023-01-13T16:45:20;7.00;;;1.13;;
1296;SDS011;641;48.492;9.184;2023-01-13T16:47:46;13.50;;;2.07;;
1296;SDS011;641;48.492;9.184;2023-01-13T16:50:33;5.80;;;1.00;;
1296;SDS011;641;48.492;9.184;2023-01-13T16:53:03;11.80;;;1.70;;
1296;SDS011;641;48.492;9.184;2023-01-13T16:55:30;18.30;;;7.37;;
1296;SDS011;641;48.492;9.184;2023-01-13T16:57:56;17.63;;;7.90;;
1296;SDS011;641;48.492;9.184;2023-01-13T17:00:22;15.97;;;7.50;;
1296;SDS011;641;48.492;9.184;2023-01-13T17:02:48;12.07;;;2.50;;
1296;SDS011;641;48.492;9.184;2023-01-13T17:05:15;7.80;;;2.73;;
1296;SDS011;641;48.492;9.184;2023-01-13T17:07:41;7.17;;;1.20;;
1296;SDS011;641;48.492;9.184;2023-01-13T17:10:12;6.90;;;1.20;;
1296;SDS011;641;48.492;9.184;2023-01-13T17:12:40;7.60;;;1.80;;
1296;SDS011;641;48.492;9.184;2023-01-13T17:15:05;9.90;;;3.23;;
1296;SDS011;641;48.492;9.184;2023-01-13T17:17:32;9.97;;;2.20;;
1296;SDS011;641;48.492;9.184;2023-01-13T17:19:57;8.67;;;1.90;;
1296;SDS011;641;48.492;9.184;2023-01-13T17:22:23;8.53;;;1.80;;
1296;SDS011;641;48.492;9.184;2023-01-13T17:24:49;8.30;;;2.10;;
1296;SDS011;641;48.492;9.184;2023-01-13T17:27:15;8.53;;;2.23;;
1296;SDS011;641;48.492;9.184;2023-01-13T17:29:42;9.70;;;2.63;;
1296;SDS011;641;48.492;9.184;2023-01-13T17:32:09;6.83;;;1.50;;
1296;SDS011;641;48.492;9.184;2023-01-13T17:34:38;8.00;;;1.67;;
1296;SDS011;641;48.492;9.184;2023-01-13T17:37:04;6.07;;;1.23;;
1296;SDS011;641;48.492;9.184;2023-01-13T17:39:49;6.77;;;1.10;;
1296;SDS011;641;48.492;9.184;2023-01-13T17:42:36;9.67;;;0.80;;
1296;SDS011;641;48.492;9.184;2023-01-13T17:45:02;10.13;;;1.10;;
1296;SDS011;641;48.492;9.184;2023-01-13T17:53:18;9.10;;;1.10;;
1296;SDS011;641;48.492;9.184;2023-01-13T18:04:08;6.67;;;1.43;;
1296;SDS011;641;48.492;9.184;2023-01-13T18:06:39;9.43;;;1.20;;
1296;SDS011;641;48.492;9.184;2023-01-13T18:09:04;6.80;;;0.90;;
1296;SDS011;641;48.492;9.184;2023-01-13T18:11:30;6.83;;;0.93;;
1296;SDS011;641;48.492;9.184;2023-01-13T18:13:56;5.50;;;0.73;;
1296;SDS011;641;48.492;9.184;2023-01-13T18:16:22;6.67;;;0.77;;
1296;SDS011;641;48.492;9.184;2023-01-13T18:18:48;8.43;;;0.83;;
1296;SDS011;641;48.492;9.184;2023-01-13T18:21:22;6.47;;;1.00;;
1296;SDS011;641;48.492;9.184;2023-01-13T18:24:11;8.60;;;0.80;;